Terminal Aerodrome Forecast
Issued by NWS

Current Version | Previous Version | Graphics & Text | Print | Product List | Glossary On
Versions: 1 2 3 4 5 6 7 8 9 10 11 12 13 14 15 16 17 18 19 20 21 22 23 24 25 26 27 28 29 30 31 32 33 34 35 36
000
FTUS41 KRNK 141023 AAB
TAFLWB
TAF AMD
KLWB 141023Z 1410/1506 02004KT P6SM SCT002 OVC025
      TEMPO 1410/1413 1SM BR OVC002
     FM141400 08003KT P6SM OVC025
     FM141800 25004KT P6SM OVC035
     FM142300 00000KT 4SM BR OVC015=

USA.gov is the U.S. government's official web portal to all federal, state and local government web resources and services.